sensor_id;sensor_type;location;lat;lon;timestamp;P1;durP1;ratioP1;P2;durP2;ratioP2
36839;SDS011;24406;51.640;9.566;2022-09-09T00:01:23;2.38;;;2.17;;
36839;SDS011;24406;51.640;9.566;2022-09-09T00:06:33;2.53;;;2.33;;
36839;SDS011;24406;51.640;9.566;2022-09-09T00:11:46;2.75;;;2.42;;
36839;SDS011;24406;51.640;9.566;2022-09-09T00:16:51;3.38;;;3.00;;
36839;SDS011;24406;51.640;9.566;2022-09-09T00:22:00;5.40;;;3.70;;
36839;SDS011;24406;51.640;9.566;2022-09-09T00:27:19;6.93;;;4.10;;
36839;SDS011;24406;51.640;9.566;2022-09-09T00:32:27;5.35;;;2.63;;
36839;SDS011;24406;51.640;9.566;2022-09-09T00:37:32;6.72;;;3.47;;
36839;SDS011;24406;51.640;9.566;2022-09-09T00:42:36;5.93;;;3.10;;
36839;SDS011;24406;51.640;9.566;2022-09-09T00:47:44;3.97;;;3.53;;
36839;SDS011;24406;51.640;9.566;2022-09-09T00:52:50;4.07;;;3.10;;
36839;SDS011;24406;51.640;9.566;2022-09-09T00:57:57;3.80;;;3.42;;
36839;SDS011;24406;51.640;9.566;2022-09-09T01:08:39;4.47;;;2.88;;
36839;SDS011;24406;51.640;9.566;2022-09-09T01:13:44;4.80;;;2.73;;
36839;SDS011;24406;51.640;9.566;2022-09-09T01:18:49;3.55;;;2.42;;
36839;SDS011;24406;51.640;9.566;2022-09-09T01:24:04;2.55;;;2.35;;
36839;SDS011;24406;51.640;9.566;2022-09-09T01:29:35;3.50;;;2.38;;
36839;SDS011;24406;51.640;9.566;2022-09-09T01:34:38;2.58;;;2.38;;
36839;SDS011;24406;51.640;9.566;2022-09-09T01:39:42;6.40;;;2.20;;
36839;SDS011;24406;51.640;9.566;2022-09-09T01:44:48;3.83;;;3.03;;
36839;SDS011;24406;51.640;9.566;2022-09-09T01:49:50;3.45;;;2.92;;
36839;SDS011;24406;51.640;9.566;2022-09-09T01:54:57;4.63;;;3.30;;
36839;SDS011;24406;51.640;9.566;2022-09-09T02:00:06;3.35;;;2.80;;
36839;SDS011;24406;51.640;9.566;2022-09-09T02:05:18;3.22;;;2.30;;
36839;SDS011;24406;51.640;9.566;2022-09-09T02:10:28;4.72;;;2.30;;
36839;SDS011;24406;51.640;9.566;2022-09-09T02:15:50;5.88;;;2.33;;
36839;SDS011;24406;51.640;9.566;2022-09-09T02:20:54;5.53;;;2.20;;
36839;SDS011;24406;51.640;9.566;2022-09-09T02:25:57;2.42;;;2.15;;
36839;SDS011;24406;51.640;9.566;2022-09-09T02:31:01;3.33;;;2.92;;
36839;SDS011;24406;51.640;9.566;2022-09-09T02:36:09;5.32;;;3.42;;
36839;SDS011;24406;51.640;9.566;2022-09-09T02:41:13;3.83;;;3.53;;
36839;SDS011;24406;51.640;9.566;2022-09-09T02:46:22;6.57;;;3.50;;
36839;SDS011;24406;51.640;9.566;2022-09-09T02:51:31;3.22;;;3.03;;
36839;SDS011;24406;51.640;9.566;2022-09-09T02:56:39;5.07;;;3.75;;
36839;SDS011;24406;51.640;9.566;2022-09-09T03:01:45;6.13;;;2.20;;
36839;SDS011;24406;51.640;9.566;2022-09-09T03:06:47;5.75;;;3.10;;
36839;SDS011;24406;51.640;9.566;2022-09-09T03:11:53;4.50;;;3.92;;
36839;SDS011;24406;51.640;9.566;2022-09-09T03:16:57;4.60;;;3.83;;
36839;SDS011;24406;51.640;9.566;2022-09-09T03:22:02;6.85;;;3.75;;
36839;SDS011;24406;51.640;9.566;2022-09-09T03:32:42;3.13;;;2.88;;
36839;SDS011;24406;51.640;9.566;2022-09-09T03:37:45;3.25;;;2.88;;
36839;SDS011;24406;51.640;9.566;2022-09-09T03:42:47;3.10;;;2.90;;
36839;SDS011;24406;51.640;9.566;2022-09-09T03:47:51;3.92;;;3.13;;
36839;SDS011;24406;51.640;9.566;2022-09-09T03:52:54;4.20;;;2.63;;
36839;SDS011;24406;51.640;9.566;2022-09-09T03:57:56;4.82;;;2.90;;
36839;SDS011;24406;51.640;9.566;2022-09-09T04:02:59;4.38;;;2.90;;
36839;SDS011;24406;51.640;9.566;2022-09-09T04:08:00;2.88;;;2.40;;
36839;SDS011;24406;51.640;9.566;2022-09-09T04:13:03;4.00;;;2.33;;
36839;SDS011;24406;51.640;9.566;2022-09-09T04:18:06;3.15;;;2.65;;
36839;SDS011;24406;51.640;9.566;2022-09-09T04:23:08;3.53;;;2.22;;
36839;SDS011;24406;51.640;9.566;2022-09-09T04:28:09;4.22;;;2.35;;
36839;SDS011;24406;51.640;9.566;2022-09-09T04:33:13;2.03;;;1.83;;
36839;SDS011;24406;51.640;9.566;2022-09-09T04:38:15;5.57;;;2.10;;
36839;SDS011;24406;51.640;9.566;2022-09-09T04:43:17;2.63;;;2.20;;
36839;SDS011;24406;51.640;9.566;2022-09-09T04:48:21;3.30;;;2.55;;
36839;SDS011;24406;51.640;9.566;2022-09-09T04:53:23;5.25;;;2.50;;
36839;SDS011;24406;51.640;9.566;2022-09-09T04:58:26;3.55;;;2.28;;
36839;SDS011;24406;51.640;9.566;2022-09-09T05:03:29;4.65;;;2.03;;
36839;SDS011;24406;51.640;9.566;2022-09-09T05:08:31;3.33;;;2.65;;
36839;SDS011;24406;51.640;9.566;2022-09-09T05:13:33;8.38;;;2.90;;
36839;SDS011;24406;51.640;9.566;2022-09-09T05:18:35;2.55;;;2.35;;
36839;SDS011;24406;51.640;9.566;2022-09-09T05:23:37;3.35;;;2.33;;
36839;SDS011;24406;51.640;9.566;2022-09-09T05:28:39;4.70;;;2.40;;
36839;SDS011;24406;51.640;9.566;2022-09-09T05:33:42;3.00;;;2.70;;
36839;SDS011;24406;51.640;9.566;2022-09-09T05:38:46;5.35;;;3.03;;
36839;SDS011;24406;51.640;9.566;2022-09-09T05:43:48;4.55;;;2.70;;
36839;SDS011;24406;51.640;9.566;2022-09-09T05:48:51;4.18;;;2.88;;
36839;SDS011;24406;51.640;9.566;2022-09-09T05:53:58;4.20;;;2.63;;
36839;SDS011;24406;51.640;9.566;2022-09-09T05:59:03;7.25;;;2.92;;
36839;SDS011;24406;51.640;9.566;2022-09-09T06:04:05;5.03;;;3.28;;
36839;SDS011;24406;51.640;9.566;2022-09-09T06:09:08;7.55;;;3.30;;
36839;SDS011;24406;51.640;9.566;2022-09-09T06:14:11;4.78;;;3.95;;
36839;SDS011;24406;51.640;9.566;2022-09-09T06:19:15;3.45;;;3.10;;
36839;SDS011;24406;51.640;9.566;2022-09-09T06:24:16;5.55;;;4.88;;
36839;SDS011;24406;51.640;9.566;2022-09-09T06:29:19;5.00;;;4.32;;
36839;SDS011;24406;51.640;9.566;2022-09-09T06:34:22;3.90;;;3.42;;
36839;SDS011;24406;51.640;9.566;2022-09-09T06:39:28;3.88;;;3.28;;
36839;SDS011;24406;51.640;9.566;2022-09-09T06:44:29;5.22;;;3.88;;
36839;SDS011;24406;51.640;9.566;2022-09-09T06:49:35;4.53;;;3.15;;
36839;SDS011;24406;51.640;9.566;2022-09-09T06:54:40;5.85;;;3.00;;
36839;SDS011;24406;51.640;9.566;2022-09-09T06:59:41;4.50;;;2.80;;
36839;SDS011;24406;51.640;9.566;2022-09-09T07:04:44;2.80;;;2.55;;
36839;SDS011;24406;51.640;9.566;2022-09-09T07:09:47;3.15;;;2.17;;
36839;SDS011;24406;51.640;9.566;2022-09-09T07:14:49;3.42;;;2.20;;
36839;SDS011;24406;51.640;9.566;2022-09-09T07:19:52;5.75;;;2.08;;
36839;SDS011;24406;51.640;9.566;2022-09-09T07:24:55;2.88;;;1.90;;
36839;SDS011;24406;51.640;9.566;2022-09-09T07:29:56;3.92;;;1.60;;
36839;SDS011;24406;51.640;9.566;2022-09-09T07:35:00;5.15;;;1.42;;
36839;SDS011;24406;51.640;9.566;2022-09-09T07:40:03;5.55;;;1.80;;
36839;SDS011;24406;51.640;9.566;2022-09-09T07:45:05;2.58;;;1.40;;
36839;SDS011;24406;51.640;9.566;2022-09-09T07:50:09;4.13;;;1.67;;
36839;SDS011;24406;51.640;9.566;2022-09-09T07:55:10;3.53;;;1.83;;
36839;SDS011;24406;51.640;9.566;2022-09-09T08:00:13;4.78;;;2.00;;
36839;SDS011;24406;51.640;9.566;2022-09-09T08:05:20;6.03;;;2.25;;
36839;SDS011;24406;51.640;9.566;2022-09-09T08:10:23;7.00;;;2.10;;
36839;SDS011;24406;51.640;9.566;2022-09-09T08:15:27;5.55;;;2.15;;
36839;SDS011;24406;51.640;9.566;2022-09-09T08:20:30;6.03;;;1.85;;
36839;SDS011;24406;51.640;9.566;2022-09-09T08:25:31;3.90;;;1.95;;
36839;SDS011;24406;51.640;9.566;2022-09-09T08:30:34;4.70;;;1.67;;
36839;SDS011;24406;51.640;9.566;2022-09-09T08:35:37;4.15;;;1.55;;
36839;SDS011;24406;51.640;9.566;2022-09-09T08:40:39;5.65;;;1.77;;
36839;SDS011;24406;51.640;9.566;2022-09-09T08:45:47;3.78;;;1.98;;
36839;SDS011;24406;51.640;9.566;2022-09-09T08:50:53;4.72;;;1.30;;
36839;SDS011;24406;51.640;9.566;2022-09-09T08:56:02;4.45;;;1.70;;
36839;SDS011;24406;51.640;9.566;2022-09-09T09:01:24;6.82;;;2.20;;
36839;SDS011;24406;51.640;9.566;2022-09-09T09:06:39;5.75;;;1.77;;
36839;SDS011;24406;51.640;9.566;2022-09-09T09:11:47;4.70;;;1.63;;
36839;SDS011;24406;51.640;9.566;2022-09-09T09:16:51;8.63;;;2.25;;
36839;SDS011;24406;51.640;9.566;2022-09-09T09:21:57;5.68;;;1.77;;
36839;SDS011;24406;51.640;9.566;2022-09-09T09:27:07;4.68;;;1.60;;
36839;SDS011;24406;51.640;9.566;2022-09-09T09:32:16;5.28;;;1.23;;
36839;SDS011;24406;51.640;9.566;2022-09-09T09:37:23;4.20;;;1.77;;
36839;SDS011;24406;51.640;9.566;2022-09-09T09:42:30;5.65;;;1.88;;
36839;SDS011;24406;51.640;9.566;2022-09-09T09:47:32;3.67;;;1.90;;
36839;SDS011;24406;51.640;9.566;2022-09-09T09:52:51;5.50;;;2.13;;
36839;SDS011;24406;51.640;9.566;2022-09-09T09:58:00;5.60;;;1.83;;
36839;SDS011;24406;51.640;9.566;2022-09-09T10:03:12;5.68;;;1.58;;
36839;SDS011;24406;51.640;9.566;2022-09-09T10:08:21;4.97;;;1.98;;
36839;SDS011;24406;51.640;9.566;2022-09-09T10:13:25;6.03;;;1.73;;
36839;SDS011;24406;51.640;9.566;2022-09-09T10:18:37;3.90;;;1.45;;
36839;SDS011;24406;51.640;9.566;2022-09-09T10:23:49;5.00;;;1.63;;
36839;SDS011;24406;51.640;9.566;2022-09-09T10:29:17;4.45;;;1.52;;
36839;SDS011;24406;51.640;9.566;2022-09-09T10:34:31;6.13;;;1.88;;
36839;SDS011;24406;51.640;9.566;2022-09-09T10:39:42;4.93;;;1.55;;
36839;SDS011;24406;51.640;9.566;2022-09-09T10:44:47;2.78;;;1.20;;
36839;SDS011;24406;51.640;9.566;2022-09-09T10:50:02;6.78;;;1.65;;
36839;SDS011;24406;51.640;9.566;2022-09-09T10:55:27;2.30;;;1.40;;
36839;SDS011;24406;51.640;9.566;2022-09-09T11:00:38;4.38;;;1.50;;
36839;SDS011;24406;51.640;9.566;2022-09-09T11:05:42;6.75;;;1.70;;
36839;SDS011;24406;51.640;9.566;2022-09-09T11:10:47;5.25;;;1.15;;
36839;SDS011;24406;51.640;9.566;2022-09-09T11:15:53;4.75;;;1.52;;
36839;SDS011;24406;51.640;9.566;2022-09-09T11:21:00;4.93;;;1.40;;
36839;SDS011;24406;51.640;9.566;2022-09-09T11:26:04;2.00;;;1.17;;
36839;SDS011;24406;51.640;9.566;2022-09-09T11:31:13;4.85;;;1.77;;
36839;SDS011;24406;51.640;9.566;2022-09-09T11:36:33;4.32;;;1.55;;
36839;SDS011;24406;51.640;9.566;2022-09-09T11:41:45;5.93;;;1.60;;
36839;SDS011;24406;51.640;9.566;2022-09-09T11:46:48;4.15;;;1.52;;
36839;SDS011;24406;51.640;9.566;2022-09-09T11:51:52;2.30;;;1.20;;
36839;SDS011;24406;51.640;9.566;2022-09-09T11:56:56;6.35;;;1.17;;
36839;SDS011;24406;51.640;9.566;2022-09-09T12:01:58;4.85;;;1.10;;
36839;SDS011;24406;51.640;9.566;2022-09-09T12:07:02;3.55;;;1.50;;
36839;SDS011;24406;51.640;9.566;2022-09-09T12:12:16;2.95;;;1.33;;
36839;SDS011;24406;51.640;9.566;2022-09-09T12:17:24;2.75;;;1.20;;
36839;SDS011;24406;51.640;9.566;2022-09-09T12:22:27;5.18;;;1.20;;
36839;SDS011;24406;51.640;9.566;2022-09-09T12:27:40;3.03;;;1.42;;
36839;SDS011;24406;51.640;9.566;2022-09-09T12:32:45;6.05;;;1.58;;
36839;SDS011;24406;51.640;9.566;2022-09-09T12:37:48;5.65;;;1.73;;
36839;SDS011;24406;51.640;9.566;2022-09-09T12:42:55;5.55;;;1.40;;
36839;SDS011;24406;51.640;9.566;2022-09-09T12:47:57;7.72;;;1.38;;
36839;SDS011;24406;51.640;9.566;2022-09-09T12:53:01;1.50;;;0.93;;
36839;SDS011;24406;51.640;9.566;2022-09-09T12:58:06;5.43;;;1.55;;
36839;SDS011;24406;51.640;9.566;2022-09-09T13:03:14;2.45;;;1.00;;
36839;SDS011;24406;51.640;9.566;2022-09-09T13:08:18;4.30;;;1.10;;
36839;SDS011;24406;51.640;9.566;2022-09-09T13:13:22;2.78;;;1.23;;
36839;SDS011;24406;51.640;9.566;2022-09-09T13:18:26;6.80;;;1.50;;
36839;SDS011;24406;51.640;9.566;2022-09-09T13:23:30;3.17;;;1.10;;
36839;SDS011;24406;51.640;9.566;2022-09-09T13:28:35;3.13;;;0.98;;
36839;SDS011;24406;51.640;9.566;2022-09-09T13:33:37;2.28;;;1.00;;
36839;SDS011;24406;51.640;9.566;2022-09-09T13:38:40;5.35;;;1.02;;
36839;SDS011;24406;51.640;9.566;2022-09-09T13:43:55;5.82;;;1.15;;
36839;SDS011;24406;51.640;9.566;2022-09-09T13:48:57;3.38;;;0.90;;
36839;SDS011;24406;51.640;9.566;2022-09-09T13:54:00;4.68;;;0.68;;
36839;SDS011;24406;51.640;9.566;2022-09-09T13:59:03;3.40;;;1.23;;
36839;SDS011;24406;51.640;9.566;2022-09-09T14:04:06;5.10;;;0.90;;
36839;SDS011;24406;51.640;9.566;2022-09-09T14:09:10;4.78;;;1.30;;
36839;SDS011;24406;51.640;9.566;2022-09-09T14:14:14;7.03;;;1.27;;
36839;SDS011;24406;51.640;9.566;2022-09-09T14:19:15;3.95;;;1.40;;
36839;SDS011;24406;51.640;9.566;2022-09-09T14:24:19;4.78;;;0.70;;
36839;SDS011;24406;51.640;9.566;2022-09-09T14:29:21;5.30;;;1.15;;
36839;SDS011;24406;51.640;9.566;2022-09-09T14:34:25;2.08;;;0.98;;
36839;SDS011;24406;51.640;9.566;2022-09-09T14:39:26;1.73;;;0.93;;
36839;SDS011;24406;51.640;9.566;2022-09-09T14:44:29;2.13;;;0.68;;
36839;SDS011;24406;51.640;9.566;2022-09-09T14:49:30;3.55;;;1.20;;
36839;SDS011;24406;51.640;9.566;2022-09-09T14:54:32;7.00;;;1.05;;
36839;SDS011;24406;51.640;9.566;2022-09-09T14:59:35;5.35;;;1.27;;
36839;SDS011;24406;51.640;9.566;2022-09-09T15:04:36;1.85;;;0.90;;
36839;SDS011;24406;51.640;9.566;2022-09-09T15:09:38;2.83;;;0.90;;
36839;SDS011;24406;51.640;9.566;2022-09-09T15:14:40;2.35;;;1.02;;
36839;SDS011;24406;51.640;9.566;2022-09-09T15:19:42;4.65;;;1.00;;
36839;SDS011;24406;51.640;9.566;2022-09-09T15:24:44;1.92;;;0.90;;
36839;SDS011;24406;51.640;9.566;2022-09-09T15:29:46;1.95;;;0.80;;
36839;SDS011;24406;51.640;9.566;2022-09-09T15:34:48;3.00;;;0.93;;
36839;SDS011;24406;51.640;9.566;2022-09-09T15:39:51;2.97;;;1.10;;
36839;SDS011;24406;51.640;9.566;2022-09-09T15:44:54;4.18;;;0.90;;
36839;SDS011;24406;51.640;9.566;2022-09-09T15:49:55;1.95;;;0.98;;
36839;SDS011;24406;51.640;9.566;2022-09-09T15:54:57;4.10;;;1.33;;
36839;SDS011;24406;51.640;9.566;2022-09-09T16:00:00;3.78;;;1.00;;
36839;SDS011;24406;51.640;9.566;2022-09-09T16:05:05;3.28;;;1.15;;
36839;SDS011;24406;51.640;9.566;2022-09-09T16:10:07;2.85;;;0.90;;
36839;SDS011;24406;51.640;9.566;2022-09-09T16:15:10;3.17;;;1.00;;
36839;SDS011;24406;51.640;9.566;2022-09-09T16:20:13;2.20;;;1.20;;
36839;SDS011;24406;51.640;9.566;2022-09-09T16:25:14;2.83;;;0.85;;
36839;SDS011;24406;51.640;9.566;2022-09-09T16:30:17;2.90;;;1.20;;
36839;SDS011;24406;51.640;9.566;2022-09-09T16:35:18;4.85;;;1.20;;
36839;SDS011;24406;51.640;9.566;2022-09-09T16:40:21;2.72;;;1.30;;
36839;SDS011;24406;51.640;9.566;2022-09-09T16:45:23;2.58;;;1.10;;
36839;SDS011;24406;51.640;9.566;2022-09-09T16:50:25;1.88;;;1.15;;
36839;SDS011;24406;51.640;9.566;2022-09-09T16:55:26;2.75;;;0.90;;
36839;SDS011;24406;51.640;9.566;2022-09-09T17:00:29;4.15;;;1.42;;
36839;SDS011;24406;51.640;9.566;2022-09-09T17:05:30;4.20;;;1.20;;
36839;SDS011;24406;51.640;9.566;2022-09-09T17:10:32;2.45;;;1.10;;
36839;SDS011;24406;51.640;9.566;2022-09-09T17:15:40;4.03;;;1.25;;
36839;SDS011;24406;51.640;9.566;2022-09-09T17:20:42;3.80;;;1.38;;
36839;SDS011;24406;51.640;9.566;2022-09-09T17:25:44;5.53;;;1.30;;
36839;SDS011;24406;51.640;9.566;2022-09-09T17:30:47;5.63;;;1.17;;
36839;SDS011;24406;51.640;9.566;2022-09-09T17:35:48;2.38;;;1.00;;
36839;SDS011;24406;51.640;9.566;2022-09-09T17:40:49;3.55;;;1.02;;
36839;SDS011;24406;51.640;9.566;2022-09-09T17:45:52;3.78;;;1.48;;
36839;SDS011;24406;51.640;9.566;2022-09-09T17:50:56;4.28;;;1.58;;
36839;SDS011;24406;51.640;9.566;2022-09-09T17:56:02;3.40;;;1.15;;
36839;SDS011;24406;51.640;9.566;2022-09-09T18:01:07;4.22;;;1.25;;
36839;SDS011;24406;51.640;9.566;2022-09-09T18:06:10;2.10;;;1.00;;
36839;SDS011;24406;51.640;9.566;2022-09-09T18:11:15;2.50;;;1.10;;
36839;SDS011;24406;51.640;9.566;2022-09-09T18:16:18;4.50;;;1.23;;
36839;SDS011;24406;51.640;9.566;2022-09-09T18:21:21;3.17;;;1.13;;
36839;SDS011;24406;51.640;9.566;2022-09-09T18:26:25;2.42;;;1.38;;
36839;SDS011;24406;51.640;9.566;2022-09-09T18:31:28;1.30;;;0.50;;
36839;SDS011;24406;51.640;9.566;2022-09-09T18:36:31;0.80;;;0.65;;
36839;SDS011;24406;51.640;9.566;2022-09-09T18:41:34;4.65;;;0.75;;
36839;SDS011;24406;51.640;9.566;2022-09-09T18:46:38;2.20;;;0.70;;
36839;SDS011;24406;51.640;9.566;2022-09-09T18:51:41;1.85;;;0.60;;
36839;SDS011;24406;51.640;9.566;2022-09-09T18:56:42;2.30;;;0.85;;
36839;SDS011;24406;51.640;9.566;2022-09-09T19:01:46;1.67;;;0.80;;
36839;SDS011;24406;51.640;9.566;2022-09-09T19:06:48;2.72;;;0.90;;
36839;SDS011;24406;51.640;9.566;2022-09-09T19:11:56;2.30;;;0.80;;
36839;SDS011;24406;51.640;9.566;2022-09-09T19:17:00;2.55;;;1.02;;
36839;SDS011;24406;51.640;9.566;2022-09-09T19:22:01;2.22;;;0.88;;
36839;SDS011;24406;51.640;9.566;2022-09-09T19:27:05;1.45;;;0.70;;
36839;SDS011;24406;51.640;9.566;2022-09-09T19:32:08;0.77;;;0.75;;
36839;SDS011;24406;51.640;9.566;2022-09-09T19:37:10;4.03;;;0.75;;
36839;SDS011;24406;51.640;9.566;2022-09-09T19:42:12;2.58;;;1.00;;
36839;SDS011;24406;51.640;9.566;2022-09-09T19:47:15;0.70;;;0.70;;
36839;SDS011;24406;51.640;9.566;2022-09-09T19:52:16;1.38;;;0.90;;
36839;SDS011;24406;51.640;9.566;2022-09-09T19:57:18;2.53;;;0.90;;
36839;SDS011;24406;51.640;9.566;2022-09-09T20:02:21;3.35;;;0.93;;
36839;SDS011;24406;51.640;9.566;2022-09-09T20:07:24;3.05;;;1.20;;
36839;SDS011;24406;51.640;9.566;2022-09-09T20:12:25;1.13;;;0.90;;
36839;SDS011;24406;51.640;9.566;2022-09-09T20:17:28;1.45;;;0.80;;
36839;SDS011;24406;51.640;9.566;2022-09-09T20:22:29;2.10;;;0.80;;
36839;SDS011;24406;51.640;9.566;2022-09-09T20:27:30;2.95;;;0.88;;
36839;SDS011;24406;51.640;9.566;2022-09-09T20:32:34;1.75;;;0.93;;
36839;SDS011;24406;51.640;9.566;2022-09-09T20:37:35;2.70;;;1.70;;
36839;SDS011;24406;51.640;9.566;2022-09-09T20:42:37;3.47;;;0.95;;
36839;SDS011;24406;51.640;9.566;2022-09-09T20:47:40;1.95;;;0.90;;
36839;SDS011;24406;51.640;9.566;2022-09-09T20:52:41;1.88;;;0.73;;
36839;SDS011;24406;51.640;9.566;2022-09-09T20:57:43;1.73;;;0.80;;
36839;SDS011;24406;51.640;9.566;2022-09-09T21:02:45;3.25;;;0.90;;
36839;SDS011;24406;51.640;9.566;2022-09-09T21:07:47;2.10;;;1.17;;
36839;SDS011;24406;51.640;9.566;2022-09-09T21:12:48;1.52;;;0.70;;
36839;SDS011;24406;51.640;9.566;2022-09-09T21:17:51;1.73;;;0.93;;
36839;SDS011;24406;51.640;9.566;2022-09-09T21:22:53;1.83;;;0.70;;
36839;SDS011;24406;51.640;9.566;2022-09-09T21:27:54;1.52;;;0.75;;
36839;SDS011;24406;51.640;9.566;2022-09-09T21:32:57;0.85;;;0.70;;
36839;SDS011;24406;51.640;9.566;2022-09-09T21:38:00;2.20;;;0.77;;
36839;SDS011;24406;51.640;9.566;2022-09-09T21:43:01;0.60;;;0.60;;
36839;SDS011;24406;51.640;9.566;2022-09-09T21:48:04;2.05;;;0.75;;
36839;SDS011;24406;51.640;9.566;2022-09-09T21:53:07;1.45;;;0.60;;
36839;SDS011;24406;51.640;9.566;2022-09-09T21:58:10;3.45;;;0.98;;
36839;SDS011;24406;51.640;9.566;2022-09-09T22:03:13;1.73;;;0.90;;
36839;SDS011;24406;51.640;9.566;2022-09-09T22:08:15;2.35;;;0.77;;
36839;SDS011;24406;51.640;9.566;2022-09-09T22:13:17;2.15;;;0.98;;
36839;SDS011;24406;51.640;9.566;2022-09-09T22:18:20;2.67;;;1.42;;
36839;SDS011;24406;51.640;9.566;2022-09-09T22:23:21;2.70;;;1.10;;
36839;SDS011;24406;51.640;9.566;2022-09-09T22:28:23;2.63;;;1.05;;
36839;SDS011;24406;51.640;9.566;2022-09-09T22:33:26;2.13;;;1.10;;
36839;SDS011;24406;51.640;9.566;2022-09-09T22:38:27;2.80;;;0.90;;
36839;SDS011;24406;51.640;9.566;2022-09-09T22:43:29;2.78;;;1.15;;
36839;SDS011;24406;51.640;9.566;2022-09-09T22:48:34;6.95;;;1.27;;
36839;SDS011;24406;51.640;9.566;2022-09-09T22:53:37;3.65;;;1.10;;
36839;SDS011;24406;51.640;9.566;2022-09-09T22:58:39;3.90;;;1.38;;
36839;SDS011;24406;51.640;9.566;2022-09-09T23:03:42;2.33;;;0.88;;
36839;SDS011;24406;51.640;9.566;2022-09-09T23:08:45;1.00;;;0.80;;
36839;SDS011;24406;51.640;9.566;2022-09-09T23:13:49;3.47;;;1.00;;
36839;SDS011;24406;51.640;9.566;2022-09-09T23:18:53;2.08;;;1.00;;
36839;SDS011;24406;51.640;9.566;2022-09-09T23:23:55;2.20;;;0.90;;
36839;SDS011;24406;51.640;9.566;2022-09-09T23:28:58;2.63;;;1.20;;
36839;SDS011;24406;51.640;9.566;2022-09-09T23:34:03;3.55;;;1.25;;
36839;SDS011;24406;51.640;9.566;2022-09-09T23:39:05;2.65;;;1.23;;
36839;SDS011;24406;51.640;9.566;2022-09-09T23:44:07;3.83;;;1.10;;
36839;SDS011;24406;51.640;9.566;2022-09-09T23:49:10;2.22;;;1.30;;
36839;SDS011;24406;51.640;9.566;2022-09-09T23:54:11;1.25;;;0.65;;
36839;SDS011;24406;51.640;9.566;2022-09-09T23:59:13;1.55;;;1.10;;
